sensor_id;sensor_type;location;lat;lon;timestamp;pressure;altitude;pressure_sealevel;temperature;humidity
47330;BME280;33060;50.178;7.570;2023-09-19T00:00:17;96476.00;;;15.74;100.00
47330;BME280;33060;50.178;7.570;2023-09-19T00:02:55;96476.66;;;15.58;100.00
47330;BME280;33060;50.178;7.570;2023-09-19T00:05:24;96489.38;;;15.54;100.00
47330;BME280;33060;50.178;7.570;2023-09-19T00:07:52;96483.47;;;15.43;100.00
47330;BME280;33060;50.178;7.570;2023-09-19T00:10:25;96477.56;;;15.31;100.00
47330;BME280;33060;50.178;7.570;2023-09-19T00:12:54;96480.88;;;15.33;100.00
47330;BME280;33060;50.178;7.570;2023-09-19T00:15:26;96483.53;;;15.33;100.00
47330;BME280;33060;50.178;7.570;2023-09-19T00:17:55;96477.25;;;15.34;100.00
47330;BME280;33060;50.178;7.570;2023-09-19T00:20:22;96486.44;;;15.22;100.00
47330;BME280;33060;50.178;7.570;2023-09-19T00:22:50;96485.53;;;15.31;100.00
47330;BME280;33060;50.178;7.570;2023-09-19T00:25:19;96487.94;;;15.24;100.00
47330;BME280;33060;50.178;7.570;2023-09-19T00:27:46;96494.59;;;15.11;100.00
47330;BME280;33060;50.178;7.570;2023-09-19T00:30:14;96497.03;;;15.04;100.00
47330;BME280;33060;50.178;7.570;2023-09-19T00:32:47;96494.66;;;15.01;100.00
47330;BME280;33060;50.178;7.570;2023-09-19T00:35:14;96495.28;;;14.85;100.00
47330;BME280;33060;50.178;7.570;2023-09-19T00:37:44;96501.59;;;15.12;100.00
47330;BME280;33060;50.178;7.570;2023-09-19T00:40:10;96500.56;;;14.95;100.00
47330;BME280;33060;50.178;7.570;2023-09-19T00:42:43;96505.56;;;14.98;100.00
47330;BME280;33060;50.178;7.570;2023-09-19T00:45:11;96505.78;;;14.87;100.00
47330;BME280;33060;50.178;7.570;2023-09-19T00:47:43;96508.28;;;14.88;100.00
47330;BME280;33060;50.178;7.570;2023-09-19T00:50:11;96521.19;;;14.74;100.00
47330;BME280;33060;50.178;7.570;2023-09-19T00:52:42;96525.47;;;14.84;100.00
47330;BME280;33060;50.178;7.570;2023-09-19T00:55:10;96521.88;;;14.76;100.00
47330;BME280;33060;50.178;7.570;2023-09-19T00:57:38;96526.41;;;14.65;100.00
47330;BME280;33060;50.178;7.570;2023-09-19T01:00:07;96525.00;;;14.71;100.00
47330;BME280;33060;50.178;7.570;2023-09-19T01:02:42;96524.78;;;14.82;100.00
47330;BME280;33060;50.178;7.570;2023-09-19T01:05:11;96530.56;;;14.68;100.00
47330;BME280;33060;50.178;7.570;2023-09-19T01:07:39;96533.84;;;14.62;100.00
47330;BME280;33060;50.178;7.570;2023-09-19T01:10:11;96533.72;;;14.54;100.00
47330;BME280;33060;50.178;7.570;2023-09-19T01:32:08;96567.28;;;14.16;100.00
47330;BME280;33060;50.178;7.570;2023-09-19T01:34:56;96555.25;;;14.31;100.00
47330;BME280;33060;50.178;7.570;2023-09-19T01:37:25;96567.03;;;14.00;100.00
47330;BME280;33060;50.178;7.570;2023-09-19T01:40:06;96572.31;;;14.09;100.00
47330;BME280;33060;50.178;7.570;2023-09-19T01:46:02;96568.25;;;14.25;100.00
47330;BME280;33060;50.178;7.570;2023-09-19T01:48:38;96562.41;;;14.11;100.00
47330;BME280;33060;50.178;7.570;2023-09-19T01:51:10;96572.31;;;14.19;100.00
47330;BME280;33060;50.178;7.570;2023-09-19T01:53:46;96569.53;;;14.11;100.00
47330;BME280;33060;50.178;7.570;2023-09-19T01:56:37;96568.25;;;14.15;100.00
47330;BME280;33060;50.178;7.570;2023-09-19T01:59:13;96572.44;;;14.27;100.00
47330;BME280;33060;50.178;7.570;2023-09-19T02:01:42;96569.94;;;14.16;100.00
47330;BME280;33060;50.178;7.570;2023-09-19T02:04:11;96569.53;;;14.11;100.00
47330;BME280;33060;50.178;7.570;2023-09-19T02:06:41;96573.13;;;14.29;100.00
47330;BME280;33060;50.178;7.570;2023-09-19T02:09:08;96573.31;;;14.08;100.00
47330;BME280;33060;50.178;7.570;2023-09-19T02:11:35;96562.66;;;14.28;100.00
47330;BME280;33060;50.178;7.570;2023-09-19T02:14:03;96565.34;;;14.08;100.00
47330;BME280;33060;50.178;7.570;2023-09-19T02:16:31;96571.63;;;14.17;100.00
47330;BME280;33060;50.178;7.570;2023-09-19T02:18:57;96567.44;;;13.95;100.00
47330;BME280;33060;50.178;7.570;2023-09-19T02:21:26;96564.72;;;14.43;100.00
47330;BME280;33060;50.178;7.570;2023-09-19T02:23:56;96574.63;;;14.41;100.00
47330;BME280;33060;50.178;7.570;2023-09-19T02:26:22;96567.66;;;14.31;100.00
47330;BME280;33060;50.178;7.570;2023-09-19T02:28:50;96578.13;;;14.32;100.00
47330;BME280;33060;50.178;7.570;2023-09-19T02:31:16;96576.31;;;14.42;100.00
47330;BME280;33060;50.178;7.570;2023-09-19T02:33:43;96573.41;;;14.26;100.00
47330;BME280;33060;50.178;7.570;2023-09-19T02:36:10;96582.34;;;14.35;100.00
47330;BME280;33060;50.178;7.570;2023-09-19T02:38:37;96586.38;;;14.29;100.00
47330;BME280;33060;50.178;7.570;2023-09-19T02:41:04;96592.41;;;14.12;100.00
47330;BME280;33060;50.178;7.570;2023-09-19T02:43:30;96593.94;;;14.34;100.00
47330;BME280;33060;50.178;7.570;2023-09-19T02:45:57;96590.03;;;14.19;100.00
47330;BME280;33060;50.178;7.570;2023-09-19T02:48:23;96596.44;;;14.55;100.00
47330;BME280;33060;50.178;7.570;2023-09-19T02:50:52;96582.88;;;14.58;100.00
47330;BME280;33060;50.178;7.570;2023-09-19T02:53:19;96588.41;;;14.74;100.00
47330;BME280;33060;50.178;7.570;2023-09-19T02:55:49;96585.22;;;15.08;100.00
47330;BME280;33060;50.178;7.570;2023-09-19T02:58:16;96586.81;;;14.54;100.00
47330;BME280;33060;50.178;7.570;2023-09-19T03:00:45;96584.66;;;14.67;100.00
47330;BME280;33060;50.178;7.570;2023-09-19T03:03:17;96593.03;;;14.72;100.00
47330;BME280;33060;50.178;7.570;2023-09-19T03:05:44;96586.78;;;14.63;100.00
47330;BME280;33060;50.178;7.570;2023-09-19T03:08:16;96595.19;;;14.49;100.00
47330;BME280;33060;50.178;7.570;2023-09-19T03:10:46;96591.00;;;14.27;100.00
47330;BME280;33060;50.178;7.570;2023-09-19T03:13:14;96592.22;;;14.33;100.00
47330;BME280;33060;50.178;7.570;2023-09-19T03:15:42;96596.03;;;14.30;100.00
47330;BME280;33060;50.178;7.570;2023-09-19T03:18:16;96604.09;;;14.38;100.00
47330;BME280;33060;50.178;7.570;2023-09-19T03:20:43;96612.91;;;14.39;100.00
47330;BME280;33060;50.178;7.570;2023-09-19T03:23:11;96609.03;;;14.33;100.00
47330;BME280;33060;50.178;7.570;2023-09-19T03:25:39;96603.53;;;14.64;100.00
47330;BME280;33060;50.178;7.570;2023-09-19T03:28:06;96611.69;;;14.33;100.00
47330;BME280;33060;50.178;7.570;2023-09-19T03:30:34;96610.94;;;14.41;100.00
47330;BME280;33060;50.178;7.570;2023-09-19T03:33:03;96612.38;;;14.45;100.00
47330;BME280;33060;50.178;7.570;2023-09-19T03:35:32;96610.50;;;14.65;100.00
47330;BME280;33060;50.178;7.570;2023-09-19T03:38:00;96609.25;;;14.69;100.00
47330;BME280;33060;50.178;7.570;2023-09-19T03:40:26;96608.00;;;14.63;100.00
47330;BME280;33060;50.178;7.570;2023-09-19T03:42:53;96613.47;;;14.62;100.00
47330;BME280;33060;50.178;7.570;2023-09-19T03:45:21;96619.78;;;14.51;100.00
47330;BME280;33060;50.178;7.570;2023-09-19T03:47:51;96617.81;;;14.53;100.00
47330;BME280;33060;50.178;7.570;2023-09-19T03:50:20;96618.78;;;14.42;100.00
47330;BME280;33060;50.178;7.570;2023-09-19T03:52:48;96610.84;;;14.52;100.00
47330;BME280;33060;50.178;7.570;2023-09-19T03:55:14;96615.16;;;14.34;100.00
47330;BME280;33060;50.178;7.570;2023-09-19T03:57:41;96619.63;;;14.33;100.00
47330;BME280;33060;50.178;7.570;2023-09-19T04:00:09;96625.66;;;14.45;100.00
47330;BME280;33060;50.178;7.570;2023-09-19T04:02:39;96620.44;;;14.24;100.00
47330;BME280;33060;50.178;7.570;2023-09-19T04:05:07;96617.53;;;14.27;100.00
47330;BME280;33060;50.178;7.570;2023-09-19T04:07:34;96620.56;;;14.42;100.00
47330;BME280;33060;50.178;7.570;2023-09-19T04:10:01;96622.69;;;14.19;100.00
47330;BME280;33060;50.178;7.570;2023-09-19T04:12:29;96623.41;;;14.11;100.00
47330;BME280;33060;50.178;7.570;2023-09-19T04:14:56;96624.50;;;14.28;100.00
47330;BME280;33060;50.178;7.570;2023-09-19T04:17:22;96620.47;;;14.14;100.00
47330;BME280;33060;50.178;7.570;2023-09-19T04:19:50;96622.84;;;14.27;100.00
47330;BME280;33060;50.178;7.570;2023-09-19T04:22:17;96622.69;;;14.38;100.00
47330;BME280;33060;50.178;7.570;2023-09-19T04:24:44;96626.19;;;14.49;100.00
47330;BME280;33060;50.178;7.570;2023-09-19T04:27:11;96629.69;;;14.20;100.00
47330;BME280;33060;50.178;7.570;2023-09-19T04:29:42;96634.84;;;14.02;100.00
47330;BME280;33060;50.178;7.570;2023-09-19T04:32:08;96642.66;;;14.23;100.00
47330;BME280;33060;50.178;7.570;2023-09-19T04:34:36;96637.22;;;14.34;100.00
47330;BME280;33060;50.178;7.570;2023-09-19T04:37:06;96642.41;;;14.17;100.00
47330;BME280;33060;50.178;7.570;2023-09-19T04:39:33;96634.97;;;14.30;100.00
47330;BME280;33060;50.178;7.570;2023-09-19T04:42:00;96633.47;;;14.08;100.00
47330;BME280;33060;50.178;7.570;2023-09-19T04:44:27;96643.25;;;14.07;100.00
47330;BME280;33060;50.178;7.570;2023-09-19T04:46:54;96639.03;;;14.14;100.00
47330;BME280;33060;50.178;7.570;2023-09-19T04:49:21;96640.97;;;14.22;100.00
47330;BME280;33060;50.178;7.570;2023-09-19T04:51:48;96643.63;;;14.22;100.00
47330;BME280;33060;50.178;7.570;2023-09-19T04:54:15;96634.97;;;14.20;100.00
47330;BME280;33060;50.178;7.570;2023-09-19T04:56:42;96648.94;;;14.22;100.00
47330;BME280;33060;50.178;7.570;2023-09-19T04:59:09;96654.69;;;14.18;100.00
47330;BME280;33060;50.178;7.570;2023-09-19T05:01:37;96656.50;;;14.17;100.00
47330;BME280;33060;50.178;7.570;2023-09-19T05:04:04;96654.97;;;14.34;100.00
47330;BME280;33060;50.178;7.570;2023-09-19T05:06:31;96674.19;;;14.07;100.00
47330;BME280;33060;50.178;7.570;2023-09-19T05:09:01;96671.81;;;14.33;100.00
47330;BME280;33060;50.178;7.570;2023-09-19T05:11:31;96671.81;;;14.33;100.00
47330;BME280;33060;50.178;7.570;2023-09-19T05:13:58;96667.09;;;14.36;100.00
47330;BME280;33060;50.178;7.570;2023-09-19T05:16:28;96668.63;;;14.20;100.00
47330;BME280;33060;50.178;7.570;2023-09-19T05:18:56;96670.84;;;13.95;100.00
47330;BME280;33060;50.178;7.570;2023-09-19T05:21:23;96666.38;;;14.05;100.00
47330;BME280;33060;50.178;7.570;2023-09-19T05:23:51;96664.84;;;14.22;100.00
47330;BME280;33060;50.178;7.570;2023-09-19T05:26:19;96674.22;;;14.36;100.00
47330;BME280;33060;50.178;7.570;2023-09-19T05:28:46;96665.97;;;14.29;100.00
47330;BME280;33060;50.178;7.570;2023-09-19T05:31:14;96666.66;;;14.22;100.00
47330;BME280;33060;50.178;7.570;2023-09-19T05:33:42;96677.41;;;14.01;100.00
47330;BME280;33060;50.178;7.570;2023-09-19T05:36:09;96682.72;;;14.10;100.00
47330;BME280;33060;50.178;7.570;2023-09-19T05:38:38;96680.38;;;14.17;100.00
47330;BME280;33060;50.178;7.570;2023-09-19T05:41:08;96685.78;;;14.06;100.00
47330;BME280;33060;50.178;7.570;2023-09-19T05:43:36;96684.13;;;14.14;100.00
47330;BME280;33060;50.178;7.570;2023-09-19T05:46:04;96690.53;;;14.12;100.00
47330;BME280;33060;50.178;7.570;2023-09-19T05:48:31;96682.34;;;14.25;100.00
47330;BME280;33060;50.178;7.570;2023-09-19T05:50:57;96688.59;;;14.14;100.00
47330;BME280;33060;50.178;7.570;2023-09-19T05:53:24;96689.56;;;14.13;100.00
47330;BME280;33060;50.178;7.570;2023-09-19T05:55:52;96696.53;;;14.24;100.00
47330;BME280;33060;50.178;7.570;2023-09-19T05:58:19;96696.97;;;14.09;100.00
47330;BME280;33060;50.178;7.570;2023-09-19T06:00:47;96699.63;;;14.19;100.00
47330;BME280;33060;50.178;7.570;2023-09-19T06:03:15;96698.94;;;14.17;100.00
47330;BME280;33060;50.178;7.570;2023-09-19T06:05:44;96701.00;;;14.13;100.00
47330;BME280;33060;50.178;7.570;2023-09-19T06:08:12;96711.91;;;14.20;100.00
47330;BME280;33060;50.178;7.570;2023-09-19T06:10:39;96719.88;;;14.20;100.00
47330;BME280;33060;50.178;7.570;2023-09-19T06:13:06;96712.75;;;14.11;100.00
47330;BME280;33060;50.178;7.570;2023-09-19T06:15:32;96721.53;;;14.02;100.00
47330;BME280;33060;50.178;7.570;2023-09-19T06:18:00;96723.47;;;14.00;100.00
47330;BME280;33060;50.178;7.570;2023-09-19T06:20:29;96726.25;;;13.98;100.00
47330;BME280;33060;50.178;7.570;2023-09-19T06:22:56;96730.59;;;13.99;100.00
47330;BME280;33060;50.178;7.570;2023-09-19T06:25:23;96733.28;;;14.28;100.00
47330;BME280;33060;50.178;7.570;2023-09-19T06:27:51;96740.13;;;14.40;100.00
47330;BME280;33060;50.178;7.570;2023-09-19T06:30:21;96742.06;;;14.19;100.00
47330;BME280;33060;50.178;7.570;2023-09-19T06:32:49;96741.09;;;14.20;100.00
47330;BME280;33060;50.178;7.570;2023-09-19T06:35:21;96745.69;;;14.18;100.00
47330;BME280;33060;50.178;7.570;2023-09-19T06:37:48;96754.66;;;14.36;100.00
47330;BME280;33060;50.178;7.570;2023-09-19T06:40:16;96758.00;;;14.38;100.00
47330;BME280;33060;50.178;7.570;2023-09-19T06:42:45;96766.41;;;14.43;100.00
47330;BME280;33060;50.178;7.570;2023-09-19T06:45:13;96759.13;;;14.26;100.00
47330;BME280;33060;50.178;7.570;2023-09-19T06:47:49;96769.88;;;14.34;100.00
47330;BME280;33060;50.178;7.570;2023-09-19T06:50:17;96782.63;;;14.50;100.00
47330;BME280;33060;50.178;7.570;2023-09-19T06:52:46;96779.78;;;14.32;100.00
47330;BME280;33060;50.178;7.570;2023-09-19T06:55:17;96783.25;;;14.23;100.00
47330;BME280;33060;50.178;7.570;2023-09-19T06:57:47;96790.81;;;14.37;100.00
47330;BME280;33060;50.178;7.570;2023-09-19T07:00:15;96783.13;;;14.25;100.00
47330;BME280;33060;50.178;7.570;2023-09-19T07:02:42;96788.63;;;14.42;100.00
47330;BME280;33060;50.178;7.570;2023-09-19T07:05:09;96787.09;;;14.59;100.00
47330;BME280;33060;50.178;7.570;2023-09-19T07:07:36;96793.59;;;14.17;100.00
47330;BME280;33060;50.178;7.570;2023-09-19T07:10:04;96799.31;;;14.31;100.00
47330;BME280;33060;50.178;7.570;2023-09-19T07:12:36;96804.75;;;14.20;100.00
47330;BME280;33060;50.178;7.570;2023-09-19T07:15:03;96811.72;;;14.61;100.00
47330;BME280;33060;50.178;7.570;2023-09-19T07:17:32;96805.47;;;14.41;100.00
47330;BME280;33060;50.178;7.570;2023-09-19T07:19:59;96810.44;;;14.46;100.00
47330;BME280;33060;50.178;7.570;2023-09-19T07:22:26;96804.97;;;14.48;100.00
47330;BME280;33060;50.178;7.570;2023-09-19T07:24:53;96808.38;;;14.79;100.00
47330;BME280;33060;50.178;7.570;2023-09-19T07:27:20;96806.94;;;14.46;100.00
47330;BME280;33060;50.178;7.570;2023-09-19T07:29:46;96817.69;;;14.54;100.00
47330;BME280;33060;50.178;7.570;2023-09-19T07:32:17;96818.50;;;14.45;100.00
47330;BME280;33060;50.178;7.570;2023-09-19T07:34:44;96824.16;;;14.80;100.00
47330;BME280;33060;50.178;7.570;2023-09-19T07:37:11;96824.28;;;14.69;100.00
47330;BME280;33060;50.178;7.570;2023-09-19T07:39:39;96829.03;;;14.65;100.00
47330;BME280;33060;50.178;7.570;2023-09-19T07:42:07;96835.09;;;14.37;100.00
47330;BME280;33060;50.178;7.570;2023-09-19T07:44:37;96840.81;;;14.42;100.00
47330;BME280;33060;50.178;7.570;2023-09-19T07:47:04;96837.56;;;14.79;100.00
47330;BME280;33060;50.178;7.570;2023-09-19T07:49:31;96841.50;;;15.04;100.00
47330;BME280;33060;50.178;7.570;2023-09-19T07:51:58;96846.09;;;15.21;100.00
47330;BME280;33060;50.178;7.570;2023-09-19T07:54:25;96847.06;;;15.30;100.00
47330;BME280;33060;50.178;7.570;2023-09-19T07:56:53;96842.69;;;15.67;100.00
47330;BME280;33060;50.178;7.570;2023-09-19T07:59:20;96832.81;;;15.31;100.00
47330;BME280;33060;50.178;7.570;2023-09-19T08:01:47;96842.84;;;15.37;100.00
47330;BME280;33060;50.178;7.570;2023-09-19T08:04:14;96840.19;;;15.46;100.00
47330;BME280;33060;50.178;7.570;2023-09-19T08:06:41;96843.25;;;15.51;100.00
47330;BME280;33060;50.178;7.570;2023-09-19T08:09:08;96857.09;;;15.74;100.00
47330;BME280;33060;50.178;7.570;2023-09-19T08:11:37;96842.72;;;15.19;100.00
47330;BME280;33060;50.178;7.570;2023-09-19T08:14:05;96849.66;;;15.59;100.00
47330;BME280;33060;50.178;7.570;2023-09-19T08:16:35;96841.59;;;15.31;100.00
47330;BME280;33060;50.178;7.570;2023-09-19T08:19:02;96843.91;;;15.82;100.00
47330;BME280;33060;50.178;7.570;2023-09-19T08:21:28;96847.69;;;15.70;100.00
47330;BME280;33060;50.178;7.570;2023-09-19T08:23:56;96842.69;;;15.58;100.00
47330;BME280;33060;50.178;7.570;2023-09-19T08:26:23;96856.28;;;15.35;100.00
47330;BME280;33060;50.178;7.570;2023-09-19T08:28:51;96859.53;;;15.95;100.00
47330;BME280;33060;50.178;7.570;2023-09-19T08:31:18;96855.91;;;15.87;98.60
47330;BME280;33060;50.178;7.570;2023-09-19T08:33:44;96862.16;;;16.05;97.02
47330;BME280;33060;50.178;7.570;2023-09-19T08:36:16;96845.34;;;16.32;97.51
47330;BME280;33060;50.178;7.570;2023-09-19T08:38:43;96855.69;;;15.51;95.18
47330;BME280;33060;50.178;7.570;2023-09-19T08:41:10;96850.91;;;15.54;100.00
47330;BME280;33060;50.178;7.570;2023-09-19T08:43:37;96850.22;;;15.72;97.44
47330;BME280;33060;50.178;7.570;2023-09-19T08:46:10;96854.16;;;15.68;97.02
47330;BME280;33060;50.178;7.570;2023-09-19T08:49:04;96851.84;;;15.92;96.38
47330;BME280;33060;50.178;7.570;2023-09-19T08:51:43;96846.09;;;16.24;95.92
47330;BME280;33060;50.178;7.570;2023-09-19T08:54:22;96842.50;;;16.71;94.32
47330;BME280;33060;50.178;7.570;2023-09-19T08:56:53;96853.84;;;16.45;95.13
47330;BME280;33060;50.178;7.570;2023-09-19T08:59:23;96868.41;;;16.14;93.93
47330;BME280;33060;50.178;7.570;2023-09-19T09:01:53;96866.31;;;16.17;91.60
47330;BME280;33060;50.178;7.570;2023-09-19T09:04:22;96870.22;;;16.13;91.46
47330;BME280;33060;50.178;7.570;2023-09-19T09:06:50;96864.78;;;16.42;90.86
47330;BME280;33060;50.178;7.570;2023-09-19T09:09:20;96868.31;;;17.06;89.05
47330;BME280;33060;50.178;7.570;2023-09-19T09:11:48;96874.94;;;16.56;87.65
47330;BME280;33060;50.178;7.570;2023-09-19T09:14:20;96867.78;;;16.57;89.90
47330;BME280;33060;50.178;7.570;2023-09-19T09:16:48;96872.91;;;16.68;89.28
47330;BME280;33060;50.178;7.570;2023-09-19T09:19:15;96875.94;;;17.01;86.24
47330;BME280;33060;50.178;7.570;2023-09-19T09:21:51;96861.25;;;16.51;89.84
47330;BME280;33060;50.178;7.570;2023-09-19T09:24:30;96859.78;;;16.84;88.28
47330;BME280;33060;50.178;7.570;2023-09-19T09:27:03;96867.72;;;16.94;88.15
47330;BME280;33060;50.178;7.570;2023-09-19T09:34:49;96869.72;;;17.53;83.38
47330;BME280;33060;50.178;7.570;2023-09-19T09:37:17;96866.72;;;16.95;84.15
47330;BME280;33060;50.178;7.570;2023-09-19T09:39:54;96872.56;;;16.53;86.07
47330;BME280;33060;50.178;7.570;2023-09-19T09:42:41;96875.75;;;16.57;83.87
47330;BME280;33060;50.178;7.570;2023-09-19T09:45:21;96873.47;;;16.44;86.17
47330;BME280;33060;50.178;7.570;2023-09-19T09:48:00;96866.00;;;16.75;82.41
47330;BME280;33060;50.178;7.570;2023-09-19T09:50:32;96868.97;;;16.45;83.42
47330;BME280;33060;50.178;7.570;2023-09-19T09:53:28;96867.63;;;16.86;79.65
47330;BME280;33060;50.178;7.570;2023-09-19T09:56:08;96872.34;;;16.92;77.88
47330;BME280;33060;50.178;7.570;2023-09-19T09:58:58;96866.50;;;17.06;80.17
47330;BME280;33060;50.178;7.570;2023-09-19T10:01:26;96869.53;;;17.11;77.08
47330;BME280;33060;50.178;7.570;2023-09-19T10:03:58;96869.00;;;17.08;78.30
47330;BME280;33060;50.178;7.570;2023-09-19T10:06:40;96868.47;;;17.40;77.86
47330;BME280;33060;50.178;7.570;2023-09-19T10:09:14;96869.47;;;17.21;76.06
47330;BME280;33060;50.178;7.570;2023-09-19T10:11:45;96866.25;;;17.79;74.38
47330;BME280;33060;50.178;7.570;2023-09-19T10:14:15;96871.66;;;17.87;74.19
47330;BME280;33060;50.178;7.570;2023-09-19T10:16:49;96856.63;;;17.86;74.63
47330;BME280;33060;50.178;7.570;2023-09-19T10:19:21;96870.19;;;17.49;71.91
47330;BME280;33060;50.178;7.570;2023-09-19T10:21:54;96866.59;;;17.58;74.01
47330;BME280;33060;50.178;7.570;2023-09-19T10:24:23;96855.94;;;17.58;73.52
47330;BME280;33060;50.178;7.570;2023-09-19T10:26:53;96857.78;;;17.40;71.17
47330;BME280;33060;50.178;7.570;2023-09-19T10:29:21;96850.03;;;18.32;70.24
47330;BME280;33060;50.178;7.570;2023-09-19T10:31:48;96845.81;;;17.88;69.02
47330;BME280;33060;50.178;7.570;2023-09-19T10:34:20;96853.72;;;17.53;70.98
47330;BME280;33060;50.178;7.570;2023-09-19T10:36:51;96845.94;;;17.60;72.79
47330;BME280;33060;50.178;7.570;2023-09-19T10:39:18;96849.88;;;18.34;73.62
47330;BME280;33060;50.178;7.570;2023-09-19T10:41:50;96853.09;;;17.77;70.33
47330;BME280;33060;50.178;7.570;2023-09-19T10:44:24;96841.53;;;18.37;67.09
47330;BME280;33060;50.178;7.570;2023-09-19T10:46:52;96842.34;;;18.29;68.21
47330;BME280;33060;50.178;7.570;2023-09-19T10:49:21;96848.16;;;17.65;67.05
47330;BME280;33060;50.178;7.570;2023-09-19T10:51:50;96842.59;;;17.58;71.05
47330;BME280;33060;50.178;7.570;2023-09-19T10:54:22;96844.91;;;17.35;71.95
47330;BME280;33060;50.178;7.570;2023-09-19T10:56:53;96845.28;;;17.40;74.13
47330;BME280;33060;50.178;7.570;2023-09-19T10:59:21;96845.56;;;17.29;73.31
47330;BME280;33060;50.178;7.570;2023-09-19T11:01:50;96847.06;;;17.14;72.63
47330;BME280;33060;50.178;7.570;2023-09-19T11:09:55;96843.25;;;17.78;71.28
47330;BME280;33060;50.178;7.570;2023-09-19T11:12:48;96835.97;;;18.22;73.51
47330;BME280;33060;50.178;7.570;2023-09-19T11:16:19;96843.56;;;17.75;69.78
47330;BME280;33060;50.178;7.570;2023-09-19T11:27:11;96845.06;;;17.34;71.64
47330;BME280;33060;50.178;7.570;2023-09-19T11:29:40;96837.28;;;17.84;69.78
47330;BME280;33060;50.178;7.570;2023-09-19T11:32:08;96837.63;;;17.81;70.48
47330;BME280;33060;50.178;7.570;2023-09-19T11:40:08;96837.59;;;18.07;69.92
47330;BME280;33060;50.178;7.570;2023-09-19T11:42:48;96835.78;;;17.82;65.84
47330;BME280;33060;50.178;7.570;2023-09-19T11:48:24;96828.63;;;17.64;67.97
47330;BME280;33060;50.178;7.570;2023-09-19T11:50:54;96833.41;;;17.78;67.08
47330;BME280;33060;50.178;7.570;2023-09-19T11:53:22;96828.72;;;17.55;65.95
47330;BME280;33060;50.178;7.570;2023-09-19T11:55:49;96850.31;;;17.43;64.24
47330;BME280;33060;50.178;7.570;2023-09-19T11:58:17;96829.31;;;17.66;66.02
47330;BME280;33060;50.178;7.570;2023-09-19T12:00:54;96833.53;;;17.51;66.82
47330;BME280;33060;50.178;7.570;2023-09-19T12:03:22;96835.19;;;17.52;68.74
47330;BME280;33060;50.178;7.570;2023-09-19T12:05:50;96829.06;;;17.34;67.93
47330;BME280;33060;50.178;7.570;2023-09-19T12:08:18;96829.97;;;17.68;67.12
47330;BME280;33060;50.178;7.570;2023-09-19T12:10:49;96834.25;;;17.35;67.08
47330;BME280;33060;50.178;7.570;2023-09-19T12:13:19;96831.41;;;17.80;68.36
47330;BME280;33060;50.178;7.570;2023-09-19T12:15:47;96820.03;;;18.04;66.76
47330;BME280;33060;50.178;7.570;2023-09-19T12:18:27;96833.28;;;18.64;64.56
47330;BME280;33060;50.178;7.570;2023-09-19T12:20:55;96825.41;;;18.55;66.01
47330;BME280;33060;50.178;7.570;2023-09-19T12:23:22;96821.19;;;18.95;65.27
47330;BME280;33060;50.178;7.570;2023-09-19T12:25:49;96821.69;;;18.98;61.06
47330;BME280;33060;50.178;7.570;2023-09-19T12:28:20;96819.81;;;18.74;61.96
47330;BME280;33060;50.178;7.570;2023-09-19T12:30:48;96818.50;;;19.52;65.17
47330;BME280;33060;50.178;7.570;2023-09-19T12:33:19;96806.00;;;19.11;62.60
47330;BME280;33060;50.178;7.570;2023-09-19T12:35:47;96817.13;;;18.66;63.08
47330;BME280;33060;50.178;7.570;2023-09-19T12:38:27;96819.59;;;18.59;65.74
47330;BME280;33060;50.178;7.570;2023-09-19T12:41:02;96831.50;;;18.73;63.18
47330;BME280;33060;50.178;7.570;2023-09-19T12:43:30;96833.19;;;18.40;64.28
47330;BME280;33060;50.178;7.570;2023-09-19T12:45:59;96835.97;;;18.22;66.30
47330;BME280;33060;50.178;7.570;2023-09-19T12:48:26;96819.44;;;18.19;62.77
47330;BME280;33060;50.178;7.570;2023-09-19T12:51:07;96810.81;;;18.25;65.29
47330;BME280;33060;50.178;7.570;2023-09-19T12:53:46;96808.84;;;18.01;65.21
47330;BME280;33060;50.178;7.570;2023-09-19T12:56:16;96813.81;;;17.96;63.96
47330;BME280;33060;50.178;7.570;2023-09-19T13:01:15;96812.91;;;18.13;63.35
47330;BME280;33060;50.178;7.570;2023-09-19T13:03:43;96810.63;;;18.26;63.39
47330;BME280;33060;50.178;7.570;2023-09-19T13:06:10;96812.06;;;18.13;64.51
47330;BME280;33060;50.178;7.570;2023-09-19T13:08:39;96801.47;;;18.37;64.17
47330;BME280;33060;50.178;7.570;2023-09-19T13:11:12;96807.63;;;18.29;64.92
47330;BME280;33060;50.178;7.570;2023-09-19T13:13:45;96807.16;;;18.34;64.97
47330;BME280;33060;50.178;7.570;2023-09-19T13:16:16;96807.16;;;18.34;61.30
47330;BME280;33060;50.178;7.570;2023-09-19T13:18:50;96780.63;;;18.41;62.16
47330;BME280;33060;50.178;7.570;2023-09-19T13:21:32;96799.28;;;18.32;61.71
47330;BME280;33060;50.178;7.570;2023-09-19T13:24:20;96800.28;;;18.31;61.57
47330;BME280;33060;50.178;7.570;2023-09-19T13:26:47;96797.88;;;18.12;62.61
47330;BME280;33060;50.178;7.570;2023-09-19T13:29:15;96798.19;;;18.01;62.18
47330;BME280;33060;50.178;7.570;2023-09-19T13:31:51;96794.59;;;17.84;63.21
47330;BME280;33060;50.178;7.570;2023-09-19T13:34:21;96788.13;;;17.95;63.32
47330;BME280;33060;50.178;7.570;2023-09-19T13:36:48;96799.47;;;18.39;64.02
47330;BME280;33060;50.178;7.570;2023-09-19T13:39:16;96791.41;;;18.23;60.07
47330;BME280;33060;50.178;7.570;2023-09-19T13:41:45;96794.88;;;18.15;59.75
47330;BME280;33060;50.178;7.570;2023-09-19T13:44:14;96790.03;;;18.11;61.32
47330;BME280;33060;50.178;7.570;2023-09-19T13:46:40;96782.88;;;18.11;60.90
47330;BME280;33060;50.178;7.570;2023-09-19T13:49:12;96784.00;;;18.00;59.22
47330;BME280;33060;50.178;7.570;2023-09-19T13:51:39;96784.75;;;17.85;58.63
47330;BME280;33060;50.178;7.570;2023-09-19T13:54:10;96780.53;;;18.08;59.55
47330;BME280;33060;50.178;7.570;2023-09-19T13:56:38;96773.19;;;18.10;59.28
47330;BME280;33060;50.178;7.570;2023-09-19T13:59:05;96770.31;;;18.03;60.74